createdAt,value
2022-12-31T00:01:58.971Z,5.50
2022-12-31T00:04:26.903Z,6.95
2022-12-31T00:06:54.671Z,7.85
2022-12-31T00:09:24.324Z,7.15
2022-12-31T00:11:52.106Z,8.45
2022-12-31T00:14:19.966Z,6.65
2022-12-31T00:16:47.780Z,6.65
2022-12-31T00:19:15.619Z,8.10
2022-12-31T00:21:44.961Z,7.85
2022-12-31T00:24:13.139Z,7.43
2022-12-31T00:26:42.937Z,8.38
2022-12-31T00:29:11.547Z,7.47
2022-12-31T00:31:40.172Z,7.93
2022-12-31T00:34:08.434Z,5.93
2022-12-31T00:36:38.391Z,7.78
2022-12-31T00:39:08.620Z,7.70
2022-12-31T00:41:36.688Z,8.13
2022-12-31T00:44:05.909Z,7.25
2022-12-31T00:49:01.580Z,8.00
2022-12-31T00:51:29.619Z,7.03
2022-12-31T00:53:58.318Z,6.80
2022-12-31T00:56:29.251Z,6.07
2022-12-31T00:58:57.472Z,6.22
2022-12-31T01:01:28.107Z,5.68
2022-12-31T01:03:59.357Z,6.32
2022-12-31T01:08:55.766Z,5.28
2022-12-31T01:11:24.601Z,8.20
2022-12-31T01:13:54.101Z,8.05
2022-12-31T01:16:23.532Z,5.70
2022-12-31T01:18:52.863Z,8.20
2022-12-31T01:21:20.986Z,6.97
2022-12-31T01:23:49.196Z,6.32
2022-12-31T01:26:19.252Z,6.07
2022-12-31T01:28:47.409Z,8.63
2022-12-31T01:31:17.748Z,8.68
2022-12-31T01:33:45.615Z,7.28
2022-12-31T01:36:23.385Z,7.70
2022-12-31T01:38:53.582Z,8.43
2022-12-31T01:41:23.553Z,6.30
2022-12-31T01:43:54.276Z,5.97
2022-12-31T01:46:28.193Z,6.53
2022-12-31T01:49:02.074Z,7.32
2022-12-31T01:51:34.346Z,6.50
2022-12-31T01:54:04.400Z,10.25
2022-12-31T01:56:32.337Z,8.07
2022-12-31T01:59:00.915Z,7.00
2022-12-31T02:01:31.580Z,7.97
2022-12-31T02:04:02.951Z,6.35
2022-12-31T02:06:37.493Z,7.32
2022-12-31T02:09:05.543Z,7.07
2022-12-31T02:11:36.640Z,8.07
2022-12-31T02:16:40.728Z,6.85
2022-12-31T02:19:29.605Z,8.40
2022-12-31T02:22:08.496Z,7.07
2022-12-31T02:25:02.296Z,7.78
2022-12-31T02:27:44.689Z,8.02
2022-12-31T02:30:16.549Z,8.18
2022-12-31T02:32:55.664Z,6.20
2022-12-31T02:35:29.637Z,6.53
2022-12-31T02:38:02.004Z,7.10
2022-12-31T02:40:30.318Z,9.68
2022-12-31T02:42:58.103Z,8.15
2022-12-31T02:45:32.845Z,6.95
2022-12-31T02:48:14.968Z,6.40
2022-12-31T02:50:56.264Z,5.53
2022-12-31T02:53:40.381Z,7.45
2022-12-31T02:56:14.747Z,6.30
2022-12-31T02:59:09.743Z,7.85
2022-12-31T03:04:34.170Z,4.72
2022-12-31T03:07:04.258Z,8.63
2022-12-31T03:09:32.565Z,5.68
2022-12-31T03:12:19.033Z,5.43
2022-12-31T03:14:46.850Z,5.53
2022-12-31T03:17:16.401Z,6.57
2022-12-31T03:20:01.678Z,8.82
2022-12-31T03:22:29.653Z,5.70
2022-12-31T03:25:17.722Z,8.20
2022-12-31T03:27:46.072Z,6.47
2022-12-31T03:30:15.896Z,6.55
2022-12-31T03:32:46.213Z,5.90
2022-12-31T03:35:16.140Z,7.88
2022-12-31T03:37:44.448Z,5.20
2022-12-31T03:40:14.522Z,7.40
2022-12-31T03:42:42.771Z,6.75
2022-12-31T03:45:11.991Z,7.03
2022-12-31T03:47:40.199Z,5.45
2022-12-31T03:50:11.788Z,8.13
2022-12-31T03:52:39.619Z,6.43
2022-12-31T03:55:09.071Z,5.43
2022-12-31T03:57:37.112Z,7.32
2022-12-31T04:00:06.320Z,7.05
2022-12-31T04:02:35.125Z,5.35
2022-12-31T04:05:03.137Z,5.25
2022-12-31T04:07:32.357Z,5.10
2022-12-31T04:10:00.419Z,5.05
2022-12-31T04:12:28.253Z,6.82
2022-12-31T04:14:56.061Z,5.15
2022-12-31T04:17:24.010Z,6.18
2022-12-31T04:19:51.819Z,6.63
2022-12-31T04:22:20.030Z,7.95
2022-12-31T04:24:49.435Z,7.03
2022-12-31T04:27:17.316Z,7.07
2022-12-31T04:29:45.237Z,6.97
2022-12-31T04:32:13.072Z,6.18
2022-12-31T04:34:40.921Z,4.88
2022-12-31T04:37:08.688Z,5.00
2022-12-31T04:39:36.506Z,5.97
2022-12-31T04:42:05.798Z,5.10
2022-12-31T04:44:35.081Z,5.10
2022-12-31T04:47:03.024Z,5.82
2022-12-31T04:49:30.782Z,7.63
2022-12-31T04:51:58.571Z,7.80
2022-12-31T04:54:26.386Z,6.85
2022-12-31T04:56:54.205Z,5.47
2022-12-31T04:59:23.408Z,8.30
2022-12-31T05:01:51.306Z,8.05
2022-12-31T05:04:19.138Z,6.97
2022-12-31T05:06:47.061Z,8.43
2022-12-31T05:09:14.813Z,10.07
2022-12-31T05:11:42.577Z,10.60
2022-12-31T05:14:10.425Z,8.85
2022-12-31T05:16:39.563Z,8.75
2022-12-31T05:19:09.540Z,7.28
2022-12-31T05:21:37.484Z,10.07
2022-12-31T05:24:05.771Z,6.38
2022-12-31T05:26:33.765Z,7.50
2022-12-31T05:29:01.646Z,8.18
2022-12-31T05:31:29.505Z,6.03
2022-12-31T05:33:58.784Z,7.68
2022-12-31T05:36:26.601Z,6.22
2022-12-31T05:38:54.393Z,5.72
2022-12-31T05:41:22.174Z,5.30
2022-12-31T05:43:51.315Z,4.95
2022-12-31T05:46:19.128Z,5.28
2022-12-31T05:48:46.954Z,5.63
2022-12-31T05:51:16.061Z,5.32
2022-12-31T05:53:43.881Z,5.43
2022-12-31T05:56:11.690Z,5.38
2022-12-31T05:58:39.483Z,5.43
2022-12-31T06:01:07.285Z,6.72
2022-12-31T06:03:35.140Z,5.53
2022-12-31T06:06:02.985Z,5.97
2022-12-31T06:08:32.186Z,5.90
2022-12-31T06:11:00.079Z,4.82
2022-12-31T06:13:27.891Z,5.43
2022-12-31T06:15:55.718Z,4.63
2022-12-31T06:18:23.587Z,5.50
2022-12-31T06:20:51.384Z,4.75
2022-12-31T06:23:19.218Z,4.93
2022-12-31T06:25:48.550Z,5.10
2022-12-31T06:28:20.429Z,5.20
2022-12-31T06:30:48.836Z,4.82
2022-12-31T06:33:16.646Z,5.25
2022-12-31T06:35:44.406Z,6.07
2022-12-31T06:38:12.161Z,6.53
2022-12-31T06:40:39.921Z,9.73
2022-12-31T06:43:09.030Z,6.95
2022-12-31T06:45:36.861Z,8.32
2022-12-31T06:48:05.039Z,7.78
2022-12-31T06:50:32.917Z,8.93
2022-12-31T06:53:00.704Z,7.90
2022-12-31T06:55:29.115Z,8.23
2022-12-31T06:57:57.767Z,8.02
2022-12-31T07:00:27.579Z,8.52
2022-12-31T07:03:11.261Z,8.93
2022-12-31T07:05:45.591Z,9.35
2022-12-31T07:08:30.321Z,9.40
2022-12-31T07:11:05.087Z,7.72
2022-12-31T07:14:00.948Z,6.15
2022-12-31T07:16:42.209Z,8.23
2022-12-31T07:19:26.090Z,6.70
2022-12-31T07:21:56.679Z,6.63
2022-12-31T07:24:25.061Z,5.40
2022-12-31T07:27:05.177Z,5.05
2022-12-31T07:29:47.743Z,6.05
2022-12-31T07:32:29.413Z,4.10
2022-12-31T07:35:05.505Z,3.38
2022-12-31T07:37:40.947Z,3.50
2022-12-31T07:40:18.126Z,3.60
2022-12-31T07:43:03.309Z,2.55
2022-12-31T07:45:42.003Z,2.20
2022-12-31T07:48:23.095Z,2.80
2022-12-31T07:50:51.891Z,2.35
2022-12-31T07:53:20.112Z,3.67
2022-12-31T07:55:49.032Z,3.65
2022-12-31T07:58:23.295Z,3.65
2022-12-31T08:00:53.691Z,3.78
2022-12-31T08:03:41.937Z,3.53
2022-12-31T08:06:13.494Z,4.22
2022-12-31T08:08:51.914Z,3.10
2022-12-31T08:11:28.706Z,4.53
2022-12-31T08:13:57.578Z,4.13
2022-12-31T08:16:25.939Z,5.47
2022-12-31T08:18:55.791Z,5.43
2022-12-31T08:21:35.269Z,6.05
2022-12-31T08:24:13.819Z,4.82
2022-12-31T08:26:53.389Z,4.05
2022-12-31T08:29:35.330Z,6.22
2022-12-31T08:32:11.623Z,4.75
2022-12-31T08:34:50.255Z,4.30
2022-12-31T08:37:25.571Z,4.43
2022-12-31T08:40:09.401Z,3.78
2022-12-31T08:42:44.937Z,6.60
2022-12-31T08:45:20.253Z,4.35
2022-12-31T08:47:59.545Z,7.35
2022-12-31T08:50:30.449Z,4.53
2022-12-31T08:52:58.969Z,3.30
2022-12-31T08:55:27.294Z,4.65
2022-12-31T08:58:11.223Z,3.97
2022-12-31T09:00:40.014Z,4.00
2022-12-31T09:03:43.008Z,4.40
2022-12-31T09:06:20.888Z,3.35
2022-12-31T09:08:54.670Z,4.78
2022-12-31T09:11:29.828Z,3.60
2022-12-31T09:14:08.460Z,3.70
2022-12-31T09:16:49.565Z,3.00
2022-12-31T09:19:17.371Z,4.65
2022-12-31T09:21:47.248Z,4.38
2022-12-31T09:24:16.742Z,5.32
2022-12-31T09:26:55.520Z,4.78
2022-12-31T09:29:38.848Z,5.50
2022-12-31T09:32:16.284Z,5.85
2022-12-31T09:34:55.042Z,4.93
2022-12-31T09:37:37.064Z,8.13
2022-12-31T09:40:33.567Z,8.90
2022-12-31T09:43:24.519Z,9.57
2022-12-31T09:46:15.539Z,7.90
2022-12-31T09:49:22.757Z,6.05
2022-12-31T09:51:57.663Z,6.18
2022-12-31T09:54:41.117Z,8.45
2022-12-31T09:57:35.246Z,6.07
2022-12-31T10:00:06.695Z,7.30
2022-12-31T10:02:58.499Z,6.55
2022-12-31T10:05:57.618Z,8.52
2022-12-31T10:08:47.848Z,5.90
2022-12-31T10:11:25.889Z,5.28
2022-12-31T10:14:07.026Z,7.53
2022-12-31T10:17:05.998Z,7.18
2022-12-31T10:20:05.619Z,7.93
2022-12-31T10:22:51.281Z,4.15
2022-12-31T10:25:39.529Z,5.75
2022-12-31T10:28:19.293Z,6.88
2022-12-31T10:31:00.373Z,7.35
2022-12-31T10:33:42.551Z,4.72
2022-12-31T10:36:19.200Z,5.25
2022-12-31T10:38:57.445Z,5.05
2022-12-31T10:41:58.652Z,7.43
2022-12-31T10:44:57.865Z,7.03
2022-12-31T10:48:17.650Z,5.85
2022-12-31T10:51:19.201Z,4.88
2022-12-31T10:54:06.936Z,5.45
2022-12-31T10:57:15.213Z,6.00
2022-12-31T11:00:03.276Z,7.05
2022-12-31T11:03:08.272Z,6.72
2022-12-31T11:06:21.682Z,7.18
2022-12-31T11:09:06.979Z,7.88
2022-12-31T11:11:45.193Z,7.43
2022-12-31T11:14:58.193Z,7.53
2022-12-31T11:17:47.629Z,7.72
2022-12-31T11:20:30.745Z,9.90
2022-12-31T11:23:09.382Z,7.15
2022-12-31T11:25:50.873Z,7.97
2022-12-31T11:28:31.517Z,8.68
2022-12-31T11:31:13.802Z,9.27
2022-12-31T11:33:57.416Z,8.43
2022-12-31T11:36:37.514Z,6.63
2022-12-31T11:39:31.091Z,6.15
2022-12-31T11:42:11.563Z,11.77
2022-12-31T11:44:47.651Z,9.18
2022-12-31T11:47:49.662Z,11.32
2022-12-31T11:50:38.432Z,7.75
2022-12-31T11:53:23.942Z,9.23
2022-12-31T11:56:10.524Z,8.70
2022-12-31T11:58:38.508Z,8.32
2022-12-31T12:01:12.674Z,6.13
2022-12-31T12:03:43.761Z,9.68
2022-12-31T12:11:14.835Z,6.72
2022-12-31T12:13:42.667Z,9.60
2022-12-31T12:16:10.560Z,10.02
2022-12-31T12:18:46.024Z,8.10
2022-12-31T12:21:15.628Z,8.68
2022-12-31T12:23:54.546Z,7.13
2022-12-31T12:26:31.553Z,8.15
2022-12-31T12:31:28.381Z,6.88
2022-12-31T12:33:57.574Z,9.02
2022-12-31T12:36:25.374Z,7.80
2022-12-31T12:39:02.431Z,7.30
2022-12-31T12:44:05.930Z,6.22
2022-12-31T12:46:36.507Z,8.40
2022-12-31T12:49:06.683Z,7.38
2022-12-31T12:51:46.554Z,9.40
2022-12-31T12:54:29.603Z,9.23
2022-12-31T12:57:05.726Z,7.72
2022-12-31T13:00:03.060Z,7.30
2022-12-31T13:02:58.026Z,7.22
2022-12-31T13:08:14.189Z,6.05
2022-12-31T13:10:58.307Z,8.40
2022-12-31T13:13:38.097Z,8.43
2022-12-31T13:16:11.557Z,9.00
2022-12-31T13:18:51.297Z,6.38
2022-12-31T13:21:37.274Z,7.78
2022-12-31T13:24:12.619Z,9.95
2022-12-31T13:26:46.050Z,10.32
2022-12-31T13:29:18.816Z,6.82
2022-12-31T13:31:48.369Z,7.93
2022-12-31T13:34:19.594Z,8.13
2022-12-31T13:36:51.609Z,8.95
2022-12-31T13:39:24.694Z,7.97
2022-12-31T13:41:58.838Z,7.72
2022-12-31T13:44:31.999Z,7.68
2022-12-31T13:47:05.355Z,8.57
2022-12-31T13:49:38.839Z,7.70
2022-12-31T13:52:22.761Z,5.72
2022-12-31T13:54:57.374Z,9.50
2022-12-31T13:57:38.753Z,7.30
2022-12-31T14:00:14.476Z,8.60
2022-12-31T14:02:49.088Z,8.30
2022-12-31T14:05:24.379Z,5.88
2022-12-31T14:07:55.657Z,7.18
2022-12-31T14:10:33.598Z,7.53
2022-12-31T14:13:13.153Z,8.02
2022-12-31T14:15:50.428Z,10.23
2022-12-31T14:18:25.129Z,7.97
2022-12-31T14:21:00.208Z,7.68
2022-12-31T14:23:42.314Z,8.88
2022-12-31T14:26:20.799Z,5.93
2022-12-31T14:28:54.590Z,7.00
2022-12-31T14:31:35.031Z,7.38
2022-12-31T14:34:10.568Z,11.65
2022-12-31T14:36:51.690Z,8.13
2022-12-31T14:39:34.244Z,6.05
2022-12-31T14:42:17.936Z,9.30
2022-12-31T14:45:00.729Z,8.80
2022-12-31T14:47:37.849Z,10.18
2022-12-31T14:50:10.853Z,7.20
2022-12-31T14:52:50.761Z,10.80
2022-12-31T14:55:29.142Z,9.77
2022-12-31T15:00:54.058Z,9.52
2022-12-31T15:03:27.403Z,12.77
2022-12-31T15:06:01.588Z,15.15
2022-12-31T15:08:50.112Z,11.73
2022-12-31T15:11:33.144Z,8.70
2022-12-31T15:16:54.249Z,12.35
2022-12-31T15:19:47.445Z,10.13
2022-12-31T15:22:30.183Z,10.57
2022-12-31T15:25:00.141Z,10.15
2022-12-31T15:27:36.209Z,9.70
2022-12-31T15:30:05.406Z,10.68
2022-12-31T15:32:36.899Z,7.75
2022-12-31T15:35:25.148Z,10.25
2022-12-31T15:38:00.313Z,13.32
2022-12-31T15:40:29.086Z,16.80
2022-12-31T15:43:03.707Z,14.70
2022-12-31T15:45:37.408Z,11.27
2022-12-31T15:48:14.662Z,16.00
2022-12-31T15:50:44.206Z,17.13
2022-12-31T15:53:27.556Z,13.02
2022-12-31T15:55:57.579Z,15.52
2022-12-31T15:58:29.235Z,11.90
2022-12-31T16:01:04.765Z,12.35
2022-12-31T16:03:34.445Z,14.05
2022-12-31T16:06:04.504Z,14.02
2022-12-31T16:08:34.851Z,8.02
2022-12-31T16:11:05.308Z,12.23
2022-12-31T16:13:37.647Z,9.25
2022-12-31T16:16:08.763Z,12.95
2022-12-31T16:18:41.150Z,10.80
2022-12-31T16:21:24.895Z,14.52
2022-12-31T16:23:53.909Z,16.98
2022-12-31T16:26:24.020Z,12.25
2022-12-31T16:28:53.206Z,12.45
2022-12-31T16:31:21.873Z,11.15
2022-12-31T16:33:49.839Z,11.10
2022-12-31T16:36:22.561Z,14.23
2022-12-31T16:38:51.044Z,12.25
2022-12-31T16:41:20.948Z,12.52
2022-12-31T16:43:49.794Z,13.85
2022-12-31T16:46:22.967Z,11.98
2022-12-31T16:48:55.155Z,12.02
2022-12-31T16:51:26.743Z,11.60
2022-12-31T16:53:54.645Z,13.30
2022-12-31T16:56:27.242Z,10.98
2022-12-31T16:59:01.260Z,12.43
2022-12-31T17:01:33.851Z,9.38
2022-12-31T17:04:05.188Z,11.43
2022-12-31T17:06:33.759Z,11.90
2022-12-31T17:09:20.487Z,11.50
2022-12-31T17:11:53.103Z,8.02
2022-12-31T17:14:24.035Z,10.48
2022-12-31T17:17:03.358Z,11.60
2022-12-31T17:19:40.083Z,11.63
2022-12-31T17:22:11.556Z,12.13
2022-12-31T17:24:40.151Z,9.70
2022-12-31T17:27:10.336Z,10.95
2022-12-31T17:29:38.304Z,13.50
2022-12-31T17:32:26.549Z,11.30
2022-12-31T17:34:54.648Z,15.45
2022-12-31T17:37:26.965Z,12.90
2022-12-31T17:40:10.861Z,12.52
2022-12-31T17:42:47.411Z,11.63
2022-12-31T17:45:20.911Z,13.80
2022-12-31T17:47:53.916Z,12.77
2022-12-31T17:50:23.333Z,9.82
2022-12-31T17:52:51.390Z,10.77
2022-12-31T17:55:20.350Z,11.65
2022-12-31T17:57:52.263Z,10.82
2022-12-31T18:00:22.157Z,9.90
2022-12-31T18:02:51.318Z,10.50
2022-12-31T18:05:21.530Z,11.70
2022-12-31T18:07:50.179Z,9.77
2022-12-31T18:10:21.068Z,12.15
2022-12-31T18:12:49.912Z,10.95
2022-12-31T18:15:20.106Z,11.45
2022-12-31T18:17:48.557Z,12.63
2022-12-31T18:20:18.627Z,11.43
2022-12-31T18:22:46.861Z,10.43
2022-12-31T18:25:17.843Z,14.30
2022-12-31T18:27:45.688Z,10.60
2022-12-31T18:30:16.396Z,10.50
2022-12-31T18:32:46.106Z,11.52
2022-12-31T18:35:48.606Z,11.10
2022-12-31T18:38:08.135Z,9.75
2022-12-31T18:40:35.987Z,24.80
2022-12-31T18:43:05.311Z,10.68
2022-12-31T18:45:33.296Z,12.30
2022-12-31T18:48:01.141Z,10.23
2022-12-31T18:50:29.034Z,12.75
2022-12-31T18:52:56.881Z,10.35
2022-12-31T18:55:33.120Z,10.73
2022-12-31T18:58:00.929Z,14.40
2022-12-31T19:00:28.766Z,9.65
2022-12-31T19:02:56.634Z,10.90
2022-12-31T19:05:27.048Z,8.82
2022-12-31T19:07:55.391Z,11.30
2022-12-31T19:10:23.986Z,8.52
2022-12-31T19:12:53.782Z,9.00
2022-12-31T19:15:29.564Z,10.32
2022-12-31T19:17:57.732Z,12.23
2022-12-31T19:20:25.821Z,8.57
2022-12-31T19:22:53.643Z,10.20
2022-12-31T19:25:23.426Z,11.10
2022-12-31T19:27:53.130Z,9.82
2022-12-31T19:30:24.562Z,7.68
2022-12-31T19:32:52.709Z,10.35
2022-12-31T19:35:21.337Z,9.27
2022-12-31T19:37:51.029Z,9.77
2022-12-31T19:40:22.096Z,10.57
2022-12-31T19:45:21.443Z,14.85
2022-12-31T19:47:49.644Z,7.93
2022-12-31T19:50:19.528Z,15.20
2022-12-31T19:52:48.878Z,16.02
2022-12-31T19:55:19.645Z,10.95
2022-12-31T19:57:48.257Z,14.05
2022-12-31T20:00:18.213Z,11.23
2022-12-31T20:02:49.182Z,13.70
2022-12-31T20:05:19.433Z,12.25
2022-12-31T20:07:47.292Z,10.90
2022-12-31T20:10:15.160Z,12.30
2022-12-31T20:12:44.764Z,9.95
2022-12-31T20:15:12.829Z,11.65
2022-12-31T20:17:40.631Z,11.43
2022-12-31T20:20:10.587Z,11.80
2022-12-31T20:22:38.508Z,9.80
2022-12-31T20:25:06.878Z,12.65
2022-12-31T20:27:34.938Z,13.82
2022-12-31T20:30:02.894Z,12.82
2022-12-31T20:32:31.271Z,11.57
2022-12-31T20:34:59.156Z,10.32
2022-12-31T20:37:28.338Z,13.88
2022-12-31T20:39:56.205Z,13.45
2022-12-31T20:42:23.974Z,12.73
2022-12-31T20:44:51.735Z,15.45
2022-12-31T20:47:19.551Z,12.48
2022-12-31T20:50:12.948Z,11.82
2022-12-31T20:52:36.552Z,12.40
2022-12-31T20:55:05.114Z,14.02
2022-12-31T20:57:34.036Z,10.05
2022-12-31T21:00:02.046Z,10.90
2022-12-31T21:02:41.295Z,14.07
2022-12-31T21:05:10.880Z,13.25
2022-12-31T21:07:40.165Z,15.55
2022-12-31T21:10:08.844Z,11.93
2022-12-31T21:12:44.753Z,15.63
2022-12-31T21:15:13.459Z,11.30
2022-12-31T21:17:41.403Z,15.48
2022-12-31T21:20:10.249Z,11.48
2022-12-31T21:22:38.112Z,12.68
2022-12-31T21:25:08.054Z,14.02
2022-12-31T21:27:36.797Z,9.57
2022-12-31T21:30:20.604Z,10.18
2022-12-31T21:32:48.683Z,12.55
2022-12-31T21:35:42.635Z,13.55
2022-12-31T21:38:06.626Z,11.10
2022-12-31T21:40:36.014Z,18.38
2022-12-31T21:43:03.808Z,16.08
2022-12-31T21:45:31.615Z,11.30
2022-12-31T21:48:17.459Z,12.25
2022-12-31T21:50:46.025Z,18.13
2022-12-31T21:53:16.548Z,15.02
2022-12-31T21:56:06.265Z,20.70
2022-12-31T21:58:34.441Z,14.77
2022-12-31T22:01:20.033Z,15.68
2022-12-31T22:03:47.993Z,15.82
2022-12-31T22:06:20.544Z,15.73
2022-12-31T22:08:50.639Z,12.73
2022-12-31T22:11:21.590Z,10.95
2022-12-31T22:13:50.135Z,13.00
2022-12-31T22:16:20.281Z,13.93
2022-12-31T22:18:48.908Z,12.13
2022-12-31T22:21:19.962Z,11.18
2022-12-31T22:23:50.089Z,10.18
2022-12-31T22:26:21.164Z,12.85
2022-12-31T22:31:18.937Z,12.63
2022-12-31T22:33:47.075Z,10.00
2022-12-31T22:36:17.503Z,13.18
2022-12-31T22:38:46.142Z,12.15
2022-12-31T22:41:16.967Z,10.25
2022-12-31T22:43:48.581Z,11.45
2022-12-31T22:46:18.564Z,11.90
2022-12-31T22:48:46.893Z,11.07
2022-12-31T22:51:15.949Z,11.23
2022-12-31T22:53:44.191Z,13.60
2022-12-31T22:56:13.768Z,14.48
2022-12-31T22:58:41.824Z,11.13
2022-12-31T23:01:18.282Z,10.82
2022-12-31T23:03:46.820Z,13.90
2022-12-31T23:06:14.917Z,14.00
2022-12-31T23:09:03.045Z,25.42
2022-12-31T23:11:30.272Z,72.28
2022-12-31T23:14:15.652Z,36.78
2022-12-31T23:17:29.191Z,48.67
2022-12-31T23:20:07.873Z,20.42
2022-12-31T23:22:53.159Z,26.65
2022-12-31T23:25:21.018Z,16.27
2022-12-31T23:27:48.857Z,27.40
2022-12-31T23:30:16.730Z,12.95
2022-12-31T23:32:45.913Z,27.65
2022-12-31T23:35:13.959Z,24.38
2022-12-31T23:37:41.752Z,26.08
2022-12-31T23:40:15.745Z,26.30
2022-12-31T23:42:46.802Z,38.67
2022-12-31T23:45:14.615Z,28.35
2022-12-31T23:47:42.710Z,36.75
2022-12-31T23:50:11.866Z,25.65
2022-12-31T23:52:39.683Z,35.20
2022-12-31T23:55:07.889Z,23.00
2022-12-31T23:57:35.667Z,25.48
